Latest Weather Observations for Swanbourne

IDW60801

Issued at 8:35 pm WST Thursday 24 April 2014 (issued every 30 minutes, with the page automatically refreshed every 10 minutes)

About weather observations | Map of weather stations | Latest weather observations for WA | Other Formats
Station Details ID: 009215 Name: SWANBOURNE Lat: -31.96 Lon: 115.76 Height: 40.96 m
Data from the previous 72 hours. | See also: Recent months at Swanbourne
Date/Time
WST
Temp
°C
App
Temp
°C
Dew
Point
Rel
Hum
%
Delta-T
°C
Wind Press
QNH
hPa
Press
MSL
hPa
Rain
since 9 am
mm
Dir
 
Spd
km/h
Gust
km/h
Spd
kts
Gust
kts
24/08:30pm 18.6 19.3 15.7 83 1.7 SSE 6 9 3 5 - - 0.0
24/08:00pm 19.1 19.7 15.8 81 2.0 SSW 7 11 4 6 - - 0.0
24/07:30pm 19.7 19.7 15.1 75 2.7 SW 9 20 5 11 - - 0.0
24/07:00pm 20.1 19.7 14.2 69 3.4 SW 9 13 5 7 - - 0.0
24/06:30pm 19.9 19.8 13.8 68 3.5 WSW 7 11 4 6 - - 0.0
24/06:00pm 20.1 20.3 14.2 69 3.4 SW 6 7 3 4 - - 0.0
24/05:30pm 20.5 20.7 14.2 67 3.7 SW 6 11 3 6 - - 0.0
24/05:00pm 20.7 20.3 14.1 66 3.8 S 9 15 5 8 - - 0.0
24/04:30pm 21.3 21.5 14.2 64 4.1 WSW 6 9 3 5 - - 0.0
24/04:00pm 21.4 21.0 14.1 63 4.3 SSW 9 13 5 7 - - 0.0
24/03:30pm 21.2 21.2 14.1 64 4.1 WSW 7 11 4 6 - - 0.0
24/03:00pm 21.6 21.8 13.2 59 4.8 SW 4 7 2 4 - - 0.0
24/02:30pm 21.5 20.7 12.9 58 4.9 SSW 9 13 5 7 - - 0.0
24/02:00pm 21.2 20.0 12.9 59 4.7 SSW 11 15 6 8 - - 0.0
24/01:30pm 21.4 20.1 12.5 57 5.0 SSW 11 15 6 8 - - 0.0
24/01:00pm 21.2 19.5 12.3 57 5.0 SW 13 19 7 10 - - 0.0
24/12:30pm 21.9 19.3 11.9 53 5.6 SW 17 20 9 11 - - 0.0
24/12:00pm 23.7 22.8 9.3 40 7.8 S 4 13 2 7 - - 0.0
24/11:30am 22.7 21.2 8.4 40 7.6 ESE 6 11 3 6 - - 0.0
24/11:00am 23.0 21.3 8.3 39 7.8 ESE 7 11 4 6 - - 0.0
24/10:30am 21.9 20.3 8.1 41 7.2 E 6 9 3 5 - - 0.0
24/10:00am 21.8 20.1 8.3 42 7.1 E 7 15 4 8 - - 0.0
24/09:30am 21.2 20.1 8.5 44 6.7 SE 4 7 2 4 - - 0.0
24/09:00am 20.5 19.5 8.8 47 6.2 ESE 4 7 2 4 - - 0.0
24/08:30am 19.2 17.7 8.5 50 5.6 SE 6 11 3 6 - - 0.0
24/08:00am 16.8 15.8 9.0 60 4.0 SSE 4 6 2 3 - - 0.0
24/07:30am 15.9 14.7 8.2 60 3.9 S 4 6 2 3 - - 0.0
24/07:00am 16.4 14.5 7.6 56 4.4 ESE 7 11 4 6 - - 0.0
24/06:30am 17.2 13.0 7.5 53 4.9 E 19 30 10 16 - - 0.0
24/06:00am 17.4 13.0 7.2 51 5.1 E 20 33 11 18 - - 0.0
24/05:30am 17.7 13.3 7.2 50 5.3 E 20 32 11 17 - - 0.0
24/05:00am 17.6 13.1 6.8 49 5.4 E 20 30 11 16 - - 0.0
24/04:30am 16.7 12.6 6.2 50 5.1 E 17 24 9 13 - - 0.0
24/04:00am 17.0 12.8 5.9 48 5.4 E 17 20 9 11 - - 0.0
24/03:30am 17.3 13.1 5.6 46 5.7 E 17 22 9 12 - - 0.0
24/03:00am 17.7 13.8 5.3 44 6.0 E 15 20 8 11 - - 0.0
24/02:30am 18.0 13.7 5.2 43 6.2 E 17 26 9 14 - - 0.0
24/02:00am 17.8 13.9 5.4 44 6.0 E 15 19 8 10 - - 0.0
24/01:30am 18.0 14.2 5.6 44 6.0 E 15 20 8 11 - - 0.0
24/01:00am 18.4 14.7 6.3 45 6.0 E 15 20 8 11 - - 0.0
24/12:30am 18.7 15.4 6.2 44 6.2 E 13 19 7 10 - - 0.0
24/12:00am 18.7 15.0 6.2 44 6.2 ESE 15 19 8 10 - - 0.0
 
Date/Time
WST
Temp
°C
App
Temp
°C
Dew
Point
Rel
Hum
%
Delta-T
°C
Wind Press
QNH
hPa
Press
MSL
hPa
Rain
since 9 am
mm
Dir
 
Spd
km/h
Gust
km/h
Spd
kts
Gust
kts
23/11:30pm 18.7 15.0 6.2 44 6.2 ESE 15 19 8 10 - - 0.0
23/11:00pm 18.7 15.5 6.9 46 5.9 ESE 13 20 7 11 - - 0.0
23/10:30pm 18.5 15.4 7.3 48 5.7 ESE 13 17 7 9 - - 0.0
23/10:00pm 18.5 15.4 8.7 53 5.1 ESE 15 17 8 9 - - 0.0
23/09:30pm 17.9 16.3 10.3 61 4.1 ESE 9 13 5 7 - - 0.0
23/09:00pm 17.6 16.5 11.9 69 3.1 SE 9 11 5 6 - - 0.0
23/08:30pm 17.9 17.4 12.6 71 3.0 ESE 7 9 4 5 - - 0.0
23/08:00pm 18.0 17.1 12.5 70 3.1 SE 9 11 5 6 - - 0.0
23/07:30pm 18.0 18.1 13.9 77 2.3 S 6 7 3 4 - - 0.0
23/07:00pm 18.9 18.2 14.4 75 2.6 S 11 15 6 8 - - 0.0
23/06:30pm 19.2 18.6 14.5 74 2.7 S 11 17 6 9 - - 0.0
23/06:00pm 19.6 18.4 14.0 70 3.2 S 13 19 7 10 - - 0.0
23/05:30pm 20.0 18.0 13.9 68 3.5 S 17 24 9 13 - - 0.0
23/05:00pm 20.6 17.9 13.6 64 4.0 SSW 20 30 11 16 - - 0.0
23/04:30pm 21.6 19.0 13.8 61 4.5 SSW 20 32 11 17 - - 0.0
23/04:00pm 21.8 18.9 13.9 61 4.6 SSW 22 32 12 17 - - 0.0
23/03:30pm 22.3 19.2 13.4 57 5.1 SSW 22 32 12 17 - - 0.0
23/03:00pm 21.9 18.9 12.5 55 5.3 SSW 20 32 11 17 - - 0.0
23/02:30pm 23.0 19.0 10.4 45 6.9 SSW 22 32 12 17 - - 0.0
23/02:00pm 22.8 18.5 10.6 46 6.7 SSW 24 32 13 17 - - 0.0
23/01:30pm 23.3 20.7 10.7 45 7.0 SSW 15 28 8 15 - - 0.0
23/01:00pm 23.5 19.9 10.6 44 7.1 SSW 20 30 11 16 - - 0.0
23/12:30pm 22.2 18.5 10.0 46 6.6 SSW 20 30 11 16 - - 0.0
23/12:00pm 23.1 20.8 10.5 45 6.9 SSW 13 22 7 12 - - 0.0
23/11:30am 23.4 20.8 7.9 37 8.2 SSE 11 20 6 11 - - 0.0
23/11:00am 22.2 19.2 7.6 39 7.6 SE 13 22 7 12 - - 0.0
23/10:30am 22.0 19.2 8.5 42 7.1 SE 13 22 7 12 - - 0.0
23/10:00am 20.8 17.6 8.4 45 6.5 SE 15 24 8 13 - - 0.0
23/09:30am 19.0 16.2 8.4 50 5.5 ESE 13 20 7 11 - - 0.0
23/09:00am 17.4 14.5 8.3 55 4.7 ESE 13 22 7 12 - - 0.0
23/08:30am 16.4 14.0 8.6 60 4.0 ESE 11 17 6 9 - - 0.0
23/08:00am 14.5 12.0 8.2 66 3.2 ESE 11 17 6 9 - - 0.0
23/07:30am 12.4 9.6 8.7 78 1.8 ESE 13 15 7 8 - - 0.0
23/07:00am 11.8 9.4 8.5 80 1.6 ESE 11 13 6 7 - - 0.0
23/06:30am 11.9 9.1 8.4 79 1.7 ESE 13 17 7 9 - - 0.0
23/06:00am 11.7 9.2 8.2 79 1.7 ESE 11 15 6 8 - - 0.0
23/05:30am 12.1 9.6 8.2 77 1.9 ESE 11 15 6 8 - - 0.0
23/05:00am 12.6 9.7 8.1 74 2.2 ESE 13 17 7 9 - - 0.0
23/04:30am 12.8 10.3 8.1 73 2.3 SE 11 17 6 9 - - 0.0
23/04:00am 12.8 10.3 8.3 74 2.2 SE 11 15 6 8 - - 0.0
23/03:30am 13.1 10.6 8.0 71 2.5 SE 11 15 6 8 - - 0.0
23/03:00am 13.8 10.9 8.2 69 2.8 SE 13 19 7 10 - - 0.0
23/02:30am 14.1 11.6 8.1 67 3.0 SE 11 17 6 9 - - 0.0
23/02:00am 14.8 12.4 8.5 66 3.2 SSE 11 20 6 11 - - 0.0
23/01:30am 15.5 12.3 8.5 63 3.6 SSE 15 32 8 17 - - 0.0
23/01:00am 15.5 12.0 8.7 64 3.5 S 17 24 9 13 - - 0.0
23/12:30am 15.4 12.3 8.9 65 3.3 SSE 15 24 8 13 - - 0.0
23/12:00am 15.5 12.9 9.2 66 3.2 SSE 13 22 7 12 - - 0.0
 
Date/Time
WST
Temp
°C
App
Temp
°C
Dew
Point
Rel
Hum
%
Delta-T
°C
Wind Press
QNH
hPa
Press
MSL
hPa
Rain
since 9 am
mm
Dir
 
Spd
km/h
Gust
km/h
Spd
kts
Gust
kts
22/11:30pm 15.7 12.8 9.8 68 3.1 SSE 15 26 8 14 - - 0.0
22/11:00pm 15.6 13.5 9.9 69 3.0 SSE 11 19 6 10 - - 0.0
22/10:30pm 15.8 13.3 9.7 67 3.2 SSE 13 19 7 10 - - 0.0
22/10:00pm 16.0 13.5 9.7 66 3.3 SSE 13 19 7 10 - - 0.0
22/09:30pm 16.1 13.5 9.5 65 3.4 SSE 13 19 7 10 - - 0.0
22/09:00pm 16.1 14.3 9.5 65 3.4 SSE 9 15 5 8 - - 0.0
22/08:30pm 16.4 14.3 9.8 65 3.5 SSE 11 15 6 8 - - 0.0
22/08:00pm 17.0 14.9 9.7 62 3.8 S 11 17 6 9 - - 0.0
22/07:30pm 17.4 14.9 9.8 61 4.0 S 13 22 7 12 - - 0.0
22/07:00pm 17.5 14.4 8.9 57 4.5 S 15 24 8 13 - - 0.0
22/06:30pm 17.4 14.5 8.3 55 4.7 S 13 20 7 11 - - 0.0
22/06:00pm 18.1 14.5 8.4 53 5.0 S 17 24 9 13 - - 0.0
22/05:30pm 18.9 15.2 8.0 49 5.6 S 17 24 9 13 - - 0.0
22/05:00pm 19.9 15.6 7.9 46 6.2 SSW 20 28 11 15 - - 0.0
22/04:30pm 20.6 16.6 8.3 45 6.4 SSW 19 28 10 15 - - 0.0
22/04:00pm 21.1 17.1 9.0 46 6.4 SSW 20 30 11 16 - - 0.0
22/03:30pm 21.2 17.1 8.5 44 6.7 SSW 20 30 11 16 - - 0.0
22/03:00pm 21.4 17.9 10.3 49 6.0 SSW 19 30 10 16 - - 0.0
22/02:30pm 21.1 17.6 10.3 50 5.9 SSW 19 28 10 15 - - 0.0
22/02:00pm 21.1 17.5 9.7 48 6.1 SW 19 26 10 14 - - 0.0
22/01:30pm 21.8 18.8 9.3 45 6.7 SW 15 22 8 12 - - 0.0
22/01:00pm 20.6 17.1 8.9 47 6.2 SW 17 22 9 12 - - 0.0
22/12:30pm 20.5 17.3 8.5 46 6.3 SW 15 20 8 11 - - 0.0
22/12:00pm 20.9 18.8 9.8 49 6.0 WSW 11 19 6 10 - - 0.0
22/11:30am 20.5 18.2 9.1 48 6.0 SW 11 19 6 10 - - 0.0
22/11:00am 19.6 17.3 8.9 50 5.6 WSW 11 17 6 9 - - 0.0
22/10:30am 19.4 17.8 8.7 50 5.6 WSW 7 15 4 8 - - 0.0
22/10:00am 19.3 17.4 6.8 44 6.3 WSW 6 9 3 5 - - 0.0
22/09:30am 18.8 17.5 6.0 43 6.3 ESE 2 7 1 4 - - 0.0
22/09:00am 17.3 15.2 5.6 46 5.7 ENE 6 9 3 5 - - 0.0
22/08:30am 15.9 12.9 6.1 52 4.8 E 11 19 6 10 - - 0.0
22/08:00am 14.3 11.0 6.2 58 3.9 E 13 19 7 10 - - 0.0
22/07:30am 12.4 8.6 6.0 65 3.0 E 15 22 8 12 - - 0.0
22/07:00am 10.1 6.4 6.3 77 1.8 E 15 19 8 10 - - 0.0
22/06:30am 8.8 6.2 6.3 84 1.2 E 9 11 5 6 - - 0.0
22/06:00am 9.8 8.1 7.6 86 1.1 E 6 7 3 4 - - 0.0
22/05:30am 10.2 9.0 8.0 86 1.1 E 4 6 2 3 - - 0.0
22/05:00am 10.2 8.4 7.3 82 1.4 ESE 6 7 3 4 - - 0.0
22/04:30am 11.0 8.9 8.1 82 1.4 ESE 9 11 5 6 - - 0.0
22/04:00am 11.1 9.1 8.8 86 1.1 SE 9 11 5 6 - - 0.0
22/03:30am 11.4 9.4 8.8 84 1.3 SE 9 13 5 7 - - 0.0
22/03:00am 11.8 9.8 8.8 82 1.5 SE 9 13 5 7 - - 0.0
22/02:30am 12.1 10.2 8.9 81 1.6 SE 9 13 5 7 - - 0.0
22/02:00am 12.4 10.5 9.1 80 1.7 SE 9 11 5 6 - - 0.0
22/01:30am 12.8 11.0 9.3 79 1.8 SE 9 11 5 6 - - 0.0
22/01:00am 13.3 11.4 9.2 76 2.1 SE 9 11 5 6 - - 0.0
22/12:30am 13.7 11.9 9.6 76 2.1 SE 9 11 5 6 - - 0.0
22/12:00am 13.8 12.0 9.5 75 2.2 ESE 9 11 5 6 - - 0.0
 
Date/Time
WST
Temp
°C
App
Temp
°C
Dew
Point
Rel
Hum
%
Delta-T
°C
Wind Press
QNH
hPa
Press
MSL
hPa
Rain
since 9 am
mm
Dir
 
Spd
km/h
Gust
km/h
Spd
kts
Gust
kts
21/11:30pm 14.3 12.8 9.1 71 2.7 SE 7 11 4 6 - - 0.0
21/11:00pm 14.8 13.3 9.2 69 2.9 ESE 7 11 4 6 - - 0.0
21/10:30pm 15.6 13.1 9.7 68 3.1 SSE 13 22 7 12 - - 0.0
21/10:00pm 15.9 13.4 9.6 66 3.3 SSE 13 22 7 12 - - 0.0
21/09:30pm 16.3 13.8 9.7 65 3.5 SSE 13 22 7 12 - - 0.0
21/09:00pm 16.6 13.7 9.8 64 3.6 SSE 15 24 8 13 - - 0.0

Other Formats:

Comma delimited format used in spreadsheet applications
http://www.bom.gov.au/fwo/IDW60801/IDW60801.94614.axf

JavaScript Object Notation format (JSON) in row-major order
http://www.bom.gov.au/fwo/IDW60801/IDW60801.94614.json